Time;durP1;ratioP1;P1;durP2;ratioP2;P2;SDS_P1;SDS_P2;PMS_P1;PMS_P2;Temp;Humidity;BMP_temperature;BMP_pressure;BME280_temperature;BME280_humidity;BME280_pressure;Samples;Min_cycle;Max_cycle;Signal;HPM_P1;HPM_P2
2022/07/25 00:01:50;;;;;;;2.63;2.13;;;24.20;96.60;;;;;;5023357;28;20042;-75
2022/07/25 00:04:16;;;;;;;2.85;2.17;;;24.20;96.60;;;;;;5002619;28;20049;-75
2022/07/25 00:06:42;;;;;;;2.80;2.05;;;24.20;96.70;;;;;;5007517;28;20496;-75
2022/07/25 00:09:08;;;;;;;2.60;2.10;;;24.20;96.70;;;;;;5003082;28;20030;-75
2022/07/25 00:11:34;;;;;;;2.83;2.13;;;24.20;96.70;;;;;;5003977;28;20042;-75
2022/07/25 00:13:59;;;;;;;5.20;2.40;;;24.20;96.80;;;;;;5018562;28;20034;-75
2022/07/25 00:16:25;;;;;;;3.03;2.20;;;24.20;96.90;;;;;;5009131;28;20105;-75
2022/07/25 00:18:51;;;;;;;3.55;2.20;;;24.20;97.00;;;;;;5002778;28;20048;-75
2022/07/25 00:21:16;;;;;;;2.60;2.17;;;24.10;96.80;;;;;;5015415;28;20030;-75
2022/07/25 00:23:42;;;;;;;3.47;2.40;;;24.10;96.90;;;;;;5005500;28;20069;-75
2022/07/25 00:26:07;;;;;;;4.50;2.10;;;24.00;97.00;;;;;;5006046;28;20038;-75
2022/07/25 00:28:33;;;;;;;3.05;2.20;;;24.00;97.10;;;;;;5009426;28;20048;-75
2022/07/25 00:30:58;;;;;;;2.58;2.38;;;24.00;97.20;;;;;;5006007;28;20504;-75
2022/07/25 00:33:24;;;;;;;2.92;2.50;;;24.00;97.20;;;;;;4992346;28;20215;-75
2022/07/25 00:35:49;;;;;;;4.55;2.40;;;23.90;97.20;;;;;;4996476;28;20558;-76
2022/07/25 00:38:15;;;;;;;2.80;2.30;;;23.90;97.20;;;;;;5004605;28;20038;-74
2022/07/25 00:40:41;;;;;;;3.83;2.55;;;23.80;97.20;;;;;;5003949;28;20029;-75
2022/07/25 00:43:06;;;;;;;3.03;2.55;;;23.80;97.20;;;;;;5026846;28;20034;-75
2022/07/25 00:45:32;;;;;;;3.38;2.13;;;23.80;97.30;;;;;;5010837;28;20178;-75
2022/07/25 00:47:57;;;;;;;2.63;1.80;;;23.70;97.30;;;;;;4991729;28;20119;-75
2022/07/25 00:50:23;;;;;;;2.80;2.15;;;23.70;97.50;;;;;;4993789;28;20049;-75
2022/07/25 00:52:49;;;;;;;4.05;2.53;;;23.60;97.60;;;;;;5003573;28;20037;-75
2022/07/25 00:55:15;;;;;;;6.40;2.70;;;23.60;97.70;;;;;;5000280;28;20038;-75
2022/07/25 00:57:40;;;;;;;3.05;2.75;;;23.60;97.70;;;;;;5013986;28;20053;-75
2022/07/25 01:00:10;;;;;;;6.72;2.78;;;23.60;97.80;;;;;;5004332;28;20121;-75
2022/07/25 01:02:36;;;;;;;3.65;2.92;;;23.60;97.80;;;;;;5007842;28;20046;-75
2022/07/25 01:05:03;;;;;;;3.97;2.75;;;23.50;97.80;;;;;;5025757;28;20036;-75
2022/07/25 01:07:28;;;;;;;4.28;2.88;;;23.50;97.90;;;;;;5014773;28;20464;-75
2022/07/25 01:09:54;;;;;;;3.63;2.83;;;23.50;98.00;;;;;;5005144;28;20073;-75
2022/07/25 01:12:21;;;;;;;3.92;3.10;;;23.40;98.20;;;;;;4994201;28;20551;-75
2022/07/25 01:14:46;;;;;;;3.83;2.92;;;23.30;98.10;;;;;;5000376;28;20042;-75
2022/07/25 01:17:12;;;;;;;5.00;3.33;;;23.30;98.20;;;;;;5019282;28;20049;-74
2022/07/25 01:19:38;;;;;;;3.72;3.30;;;23.30;98.30;;;;;;5011398;28;20046;-75
2022/07/25 01:22:03;;;;;;;5.47;3.78;;;23.20;98.30;;;;;;5000332;28;20038;-75
2022/07/25 01:24:29;;;;;;;6.68;3.45;;;23.20;98.40;;;;;;5000108;28;20499;-75
2022/07/25 01:26:54;;;;;;;4.30;2.97;;;23.20;98.40;;;;;;4993281;28;20408;-74
2022/07/25 01:29:20;;;;;;;5.07;3.55;;;23.10;98.50;;;;;;5010525;28;20508;-74
2022/07/25 01:31:46;;;;;;;4.25;3.60;;;23.00;98.60;;;;;;5017027;28;20099;-75
2022/07/25 01:34:11;;;;;;;4.32;3.50;;;23.00;98.80;;;;;;5019135;28;20042;-75
2022/07/25 01:36:37;;;;;;;4.57;3.63;;;23.00;98.80;;;;;;4996392;28;20038;-75
2022/07/25 01:39:03;;;;;;;5.32;3.70;;;23.00;98.70;;;;;;4995122;28;20166;-74
2022/07/25 01:41:28;;;;;;;3.97;3.40;;;22.90;98.90;;;;;;5005021;28;20528;-75
2022/07/25 01:43:54;;;;;;;5.03;3.70;;;22.80;99.00;;;;;;5019867;28;20041;-75
2022/07/25 01:46:19;;;;;;;5.07;4.20;;;22.80;99.10;;;;;;5000475;28;20038;-75
2022/07/25 01:48:45;;;;;;;4.88;3.83;;;22.80;99.10;;;;;;5009993;28;20527;-74
2022/07/25 01:51:11;;;;;;;4.80;4.30;;;22.80;99.10;;;;;;5001258;28;20041;-75
2022/07/25 01:53:36;;;;;;;7.53;4.55;;;22.70;99.00;;;;;;4996752;28;20033;-75
2022/07/25 01:56:04;;;;;;;4.80;4.30;;;22.70;99.20;;;;;;5006033;28;20464;-75
2022/07/25 01:58:30;;;;;;;6.80;4.65;;;22.70;99.30;;;;;;5007661;28;20251;-75
2022/07/25 02:00:55;;;;;;;6.10;5.10;;;22.70;99.30;;;;;;5003729;28;20123;-75
2022/07/25 02:03:30;;;;;;;7.55;5.18;;;22.60;99.30;;;;;;5005740;28;20102;-75
2022/07/25 02:05:58;;;;;;;7.70;5.43;;;22.60;99.60;;;;;;5016193;28;20033;-75
2022/07/25 02:08:24;;;;;;;7.45;5.45;;;22.60;99.30;;;;;;5028466;28;20124;-75
2022/07/25 02:10:49;;;;;;;8.90;5.72;;;22.60;99.30;;;;;;5003045;28;20579;-75
2022/07/25 02:13:15;;;;;;;7.07;6.13;;;22.50;99.30;;;;;;5011290;28;20037;-75
2022/07/25 02:15:40;;;;;;;7.43;6.30;;;22.30;99.50;;;;;;5026647;28;20042;-75
2022/07/25 02:18:06;;;;;;;8.02;5.75;;;22.20;99.90;;;;;;5017052;28;20518;-74
2022/07/25 02:20:32;;;;;;;8.50;5.88;;;22.00;99.90;;;;;;5000243;28;20038;-75
2022/07/25 02:22:58;;;;;;;6.50;5.15;;;21.90;99.90;;;;;;5006586;28;20681;-75
2022/07/25 02:25:23;;;;;;;5.90;5.30;;;22.00;99.90;;;;;;5000003;28;20075;-75
2022/07/25 02:27:49;;;;;;;7.53;5.28;;;21.90;99.90;;;;;;4998497;28;20092;-75
2022/07/25 02:30:15;;;;;;;8.75;5.70;;;21.80;99.90;;;;;;5002398;28;20042;-75
2022/07/25 02:32:40;;;;;;;9.00;5.65;;;21.70;99.90;;;;;;5011812;28;20044;-74
2022/07/25 02:35:07;;;;;;;8.73;5.85;;;21.70;99.90;;;;;;5011472;28;20038;-75
2022/07/25 02:37:32;;;;;;;7.57;5.72;;;21.70;99.90;;;;;;5005556;28;20480;-75
2022/07/25 02:39:58;;;;;;;5.65;5.00;;;21.80;99.90;;;;;;4993876;28;20161;-75
2022/07/25 02:42:24;;;;;;;7.22;5.47;;;21.90;99.90;;;;;;5008355;28;20126;-74
2022/07/25 02:44:50;;;;;;;6.28;5.05;;;21.90;99.90;;;;;;5005861;28;20133;-75
2022/07/25 02:47:15;;;;;;;6.53;5.05;;;22.00;99.90;;;;;;5018461;28;20555;-75
2022/07/25 02:49:41;;;;;;;5.93;4.80;;;21.90;99.90;;;;;;5004264;28;20463;-75
2022/07/25 02:52:07;;;;;;;5.57;4.97;;;21.90;99.90;;;;;;5006777;28;20385;-75
2022/07/25 02:54:32;;;;;;;6.07;5.30;;;21.90;99.90;;;;;;5009817;28;20042;-75
2022/07/25 02:56:58;;;;;;;5.43;4.90;;;21.90;99.90;;;;;;5004894;28;20132;-74
2022/07/25 02:59:23;;;;;;;6.63;4.68;;;22.00;99.90;;;;;;4997556;28;20049;-75
2022/07/25 03:01:49;;;;;;;6.18;5.22;;;21.90;99.90;;;;;;5002402;28;20040;-74
2022/07/25 03:04:14;;;;;;;7.03;5.50;;;21.90;99.90;;;;;;5011181;28;20041;-75
2022/07/25 03:06:40;;;;;;;6.18;5.57;;;21.90;99.90;;;;;;5010996;28;20091;-75
2022/07/25 03:09:06;;;;;;;7.53;4.90;;;21.90;99.90;;;;;;5011513;28;20053;-75
2022/07/25 03:11:33;;;;;;;7.55;5.80;;;21.90;99.90;;;;;;5010566;28;20057;-75
2022/07/25 03:13:59;;;;;;;9.45;5.47;;;21.80;99.90;;;;;;4998684;28;20061;-75
2022/07/25 03:16:25;;;;;;;8.32;5.20;;;21.70;99.90;;;;;;5008748;28;20045;-75
2022/07/25 03:18:51;;;;;;;6.60;5.97;;;21.70;99.90;;;;;;5011183;28;20068;-75
2022/07/25 03:21:16;;;;;;;6.15;5.53;;;21.60;99.90;;;;;;5015525;28;20032;-75
2022/07/25 03:23:42;;;;;;;6.63;5.82;;;21.40;99.90;;;;;;5005370;28;20057;-75
2022/07/25 03:26:08;;;;;;;6.50;5.38;;;21.30;99.90;;;;;;5012637;28;20038;-75
2022/07/25 03:28:33;;;;;;;7.78;6.13;;;21.40;99.90;;;;;;5001266;28;20057;-75
2022/07/25 03:30:59;;;;;;;7.88;6.55;;;21.40;99.90;;;;;;5005348;28;20157;-75
2022/07/25 03:33:24;;;;;;;8.52;6.47;;;21.40;99.90;;;;;;5025404;28;20457;-75
2022/07/25 03:35:50;;;;;;;7.25;6.55;;;21.30;99.90;;;;;;5002244;28;20049;-75
2022/07/25 03:38:15;;;;;;;7.18;5.90;;;21.40;99.90;;;;;;5001960;28;20484;-75
2022/07/25 03:40:41;;;;;;;7.38;6.10;;;21.40;99.90;;;;;;5008082;28;20516;-74
2022/07/25 03:43:07;;;;;;;7.90;6.40;;;21.40;99.90;;;;;;5011083;28;20514;-75
2022/07/25 03:45:32;;;;;;;7.47;6.05;;;21.40;99.90;;;;;;5020829;28;20042;-75
2022/07/25 03:47:58;;;;;;;8.60;6.43;;;21.50;99.90;;;;;;4998843;28;20092;-75
2022/07/25 03:50:23;;;;;;;7.47;6.38;;;21.50;99.90;;;;;;5003986;28;20050;-75
2022/07/25 03:52:49;;;;;;;8.10;6.50;;;21.50;99.90;;;;;;5010755;28;20095;-75
2022/07/25 03:55:14;;;;;;;9.98;7.32;;;21.50;99.90;;;;;;5027207;28;20121;-74
2022/07/25 03:57:40;;;;;;;12.48;8.02;;;21.40;99.90;;;;;;5000628;28;20046;-74
2022/07/25 04:00:08;;;;;;;9.43;7.20;;;21.40;99.90;;;;;;5004648;28;20627;-75
2022/07/25 04:02:36;;;;;;;9.35;7.95;;;21.50;99.90;;;;;;5008614;28;20108;-75
2022/07/25 04:05:02;;;;;;;12.50;8.82;;;21.50;99.90;;;;;;5004902;28;20060;-75
2022/07/25 04:07:27;;;;;;;8.65;7.80;;;21.50;99.90;;;;;;5000484;28;20492;-75
2022/07/25 04:09:53;;;;;;;9.85;8.00;;;21.50;99.90;;;;;;5002532;28;20049;-75
2022/07/25 04:12:18;;;;;;;9.77;8.70;;;21.60;99.90;;;;;;5002234;28;20043;-75
2022/07/25 04:14:44;;;;;;;10.68;8.93;;;21.60;99.90;;;;;;4990721;28;20088;-75
2022/07/25 04:17:10;;;;;;;9.90;8.90;;;21.60;99.90;;;;;;4992145;28;20065;-74
2022/07/25 04:19:35;;;;;;;10.02;9.02;;;21.60;99.90;;;;;;5016322;28;20045;-74
2022/07/25 04:22:01;;;;;;;11.10;9.35;;;21.60;99.90;;;;;;5022446;28;20038;-75
2022/07/25 04:24:26;;;;;;;12.45;9.70;;;21.60;99.90;;;;;;5001531;28;20046;-75
2022/07/25 04:26:52;;;;;;;9.63;8.63;;;21.60;99.90;;;;;;5021094;28;20120;-75
2022/07/25 04:29:17;;;;;;;11.65;8.88;;;21.60;99.90;;;;;;5016045;28;20038;-75
2022/07/25 04:31:43;;;;;;;11.20;8.98;;;21.60;99.90;;;;;;5006027;28;20042;-74
2022/07/25 04:34:08;;;;;;;9.98;8.77;;;21.70;99.90;;;;;;5026010;28;20092;-75
2022/07/25 04:36:34;;;;;;;11.88;9.35;;;21.60;99.90;;;;;;5002283;28;20437;-75
2022/07/25 04:38:59;;;;;;;11.27;9.20;;;21.60;99.90;;;;;;5007357;28;20038;-74
2022/07/25 04:41:25;;;;;;;11.93;8.90;;;21.60;99.90;;;;;;4995288;28;20057;-74
2022/07/25 04:43:51;;;;;;;10.55;9.43;;;21.70;99.90;;;;;;5019627;28;20049;-75
2022/07/25 04:46:20;;;;;;;10.27;9.18;;;21.80;99.90;;;;;;5007177;28;20488;-74
2022/07/25 04:48:46;;;;;;;11.80;9.27;;;21.80;99.90;;;;;;5002226;28;20042;-75
2022/07/25 04:51:11;;;;;;;10.77;8.77;;;21.90;99.90;;;;;;5009151;28;20044;-75
2022/07/25 04:53:37;;;;;;;10.40;9.25;;;21.90;99.90;;;;;;5001368;28;20041;-75
2022/07/25 04:56:03;;;;;;;11.70;9.43;;;22.00;99.90;;;;;;5003104;28;20813;-75
2022/07/25 04:58:30;;;;;;;12.45;9.80;;;21.90;99.90;;;;;;5000657;28;20069;-75
2022/07/25 05:00:56;;;;;;;10.20;9.20;;;21.90;99.90;;;;;;5021961;28;20038;-74
2022/07/25 05:03:22;;;;;;;11.13;10.02;;;21.90;99.90;;;;;;4989391;28;20077;-75
2022/07/25 05:05:47;;;;;;;12.10;10.20;;;21.90;99.90;;;;;;4989175;28;20519;-75
2022/07/25 05:08:13;;;;;;;11.70;10.60;;;22.00;99.90;;;;;;5000149;28;20173;-75
2022/07/25 05:10:39;;;;;;;14.32;10.25;;;22.00;99.90;;;;;;5007560;28;20065;-75
2022/07/25 05:13:04;;;;;;;13.18;11.07;;;22.00;99.90;;;;;;5007860;28;20045;-74
2022/07/25 05:15:30;;;;;;;13.13;10.75;;;22.00;99.90;;;;;;5016543;28;20052;-74
2022/07/25 05:17:55;;;;;;;12.52;10.93;;;22.00;99.90;;;;;;5011900;28;20038;-75
2022/07/25 05:20:21;;;;;;;11.75;10.23;;;22.00;99.90;;;;;;5003594;28;20038;-75
2022/07/25 05:22:47;;;;;;;11.20;9.90;;;22.00;99.90;;;;;;5006694;28;20035;-75
2022/07/25 05:25:13;;;;;;;14.90;10.75;;;22.10;99.90;;;;;;5004821;28;20447;-74
2022/07/25 05:27:39;;;;;;;14.52;9.98;;;22.10;99.90;;;;;;4994473;28;20042;-74
2022/07/25 05:30:06;;;;;;;11.13;9.95;;;22.20;99.90;;;;;;5005500;28;20050;-75
2022/07/25 05:32:32;;;;;;;12.55;10.40;;;22.20;99.90;;;;;;5016568;28;20042;-75
2022/07/25 05:34:57;;;;;;;12.35;10.10;;;22.20;99.90;;;;;;5009135;28;20056;-75
2022/07/25 05:37:23;;;;;;;12.88;10.27;;;22.20;99.90;;;;;;5029990;28;20034;-75
2022/07/25 05:39:48;;;;;;;11.60;10.40;;;22.20;99.90;;;;;;5011485;28;20042;-75
2022/07/25 05:42:14;;;;;;;12.98;11.00;;;22.20;99.90;;;;;;4998492;28;20041;-75
2022/07/25 05:44:40;;;;;;;12.02;10.75;;;22.20;99.90;;;;;;5011594;28;20041;-75
2022/07/25 05:47:09;;;;;;;13.43;10.90;;;22.30;99.90;;;;;;5013273;28;20082;-75
2022/07/25 05:49:36;;;;;;;13.73;10.70;;;22.30;99.90;;;;;;5004002;28;20053;-74
2022/07/25 05:52:02;;;;;;;13.63;10.23;;;22.30;99.90;;;;;;5013135;28;20112;-75
2022/07/25 05:54:27;;;;;;;12.32;10.98;;;22.30;99.90;;;;;;5002205;28;20042;-75
2022/07/25 05:56:53;;;;;;;13.27;10.10;;;22.30;99.90;;;;;;5016555;28;20045;-75
2022/07/25 05:59:18;;;;;;;12.30;10.32;;;22.40;99.90;;;;;;5010369;28;20054;-75
2022/07/25 06:01:44;;;;;;;16.25;10.38;;;22.40;99.90;;;;;;4993591;28;20137;-74
2022/07/25 06:04:09;;;;;;;11.98;10.77;;;22.50;99.90;;;;;;4994585;28;20543;-75
2022/07/25 06:06:35;;;;;;;12.02;10.82;;;22.60;99.90;;;;;;5004956;28;20420;-75
2022/07/25 06:09:01;;;;;;;13.25;11.00;;;22.60;99.90;;;;;;5005636;28;20563;-75
2022/07/25 06:11:27;;;;;;;11.20;10.10;;;22.70;99.90;;;;;;5000494;28;20134;-75
2022/07/25 06:13:53;;;;;;;11.27;10.10;;;22.70;99.90;;;;;;4992661;28;20043;-76
2022/07/25 06:16:19;;;;;;;11.50;10.15;;;22.80;99.90;;;;;;5004502;28;20381;-75
2022/07/25 06:18:44;;;;;;;12.98;10.43;;;22.80;99.90;;;;;;5003665;28;20073;-76
2022/07/25 06:21:10;;;;;;;16.27;10.25;;;22.90;99.90;;;;;;4985521;28;20510;-75
2022/07/25 06:23:36;;;;;;;11.63;9.98;;;22.90;99.90;;;;;;5013081;28;20065;-74
2022/07/25 06:26:01;;;;;;;11.82;10.05;;;22.90;99.90;;;;;;4976070;28;20112;-75
2022/07/25 06:28:27;;;;;;;11.35;10.15;;;23.00;99.90;;;;;;5005598;28;20135;-74
2022/07/25 06:30:53;;;;;;;13.23;10.65;;;23.00;99.90;;;;;;5011813;28;20117;-75
2022/07/25 06:33:19;;;;;;;11.02;9.93;;;23.00;99.90;;;;;;5010892;28;20042;-74
2022/07/25 06:35:44;;;;;;;13.63;9.50;;;23.20;99.90;;;;;;5025040;28;20037;-75
2022/07/25 06:38:10;;;;;;;10.50;9.50;;;23.40;99.90;;;;;;4997842;28;20527;-75
2022/07/25 06:40:36;;;;;;;13.23;10.18;;;23.70;99.90;;;;;;5003862;28;20104;-76
2022/07/25 06:43:01;;;;;;;10.48;8.82;;;23.90;99.90;;;;;;5010469;28;20109;-75
2022/07/25 06:45:27;;;;;;;17.70;10.52;;;24.10;99.90;;;;;;5007098;28;20038;-75
2022/07/25 06:47:52;;;;;;;13.25;9.32;;;24.30;99.90;;;;;;4991011;28;20039;-74
2022/07/25 06:50:18;;;;;;;11.25;9.23;;;24.40;99.90;;;;;;4994510;28;20267;-76
2022/07/25 06:52:44;;;;;;;12.63;10.30;;;24.70;99.90;;;;;;4995213;28;20420;-75
2022/07/25 06:55:11;;;;;;;10.27;9.25;;;24.60;99.90;;;;;;4989841;28;20496;-76
2022/07/25 06:57:37;;;;;;;11.02;9.18;;;24.70;99.90;;;;;;4998034;28;20026;-75
2022/07/25 07:00:07;;;;;;;10.40;9.23;;;24.70;99.90;;;;;;5000537;28;20124;-75
2022/07/25 07:02:33;;;;;;;14.35;9.68;;;24.60;99.90;;;;;;5001080;28;20468;-76
2022/07/25 07:04:58;;;;;;;13.57;10.05;;;24.60;99.90;;;;;;5000203;28;20041;-75
2022/07/25 07:07:24;;;;;;;10.35;9.32;;;24.50;99.90;;;;;;5004334;28;20041;-75
2022/07/25 07:09:49;;;;;;;10.02;9.02;;;24.40;99.90;;;;;;5011358;28;20073;-75
2022/07/25 07:12:15;;;;;;;11.25;9.20;;;24.30;99.90;;;;;;5003734;28;20070;-74
2022/07/25 07:14:43;;;;;;;10.73;9.50;;;24.30;99.90;;;;;;5000038;28;20029;-75
2022/07/25 07:17:08;;;;;;;11.60;8.52;;;24.30;99.90;;;;;;5001876;28;20042;-75
2022/07/25 07:19:34;;;;;;;11.73;9.57;;;24.30;99.90;;;;;;5004067;28;20393;-75
2022/07/25 07:21:59;;;;;;;10.68;9.00;;;24.30;99.90;;;;;;4997409;28;20553;-75
2022/07/25 07:24:25;;;;;;;12.25;9.70;;;24.30;99.90;;;;;;5009660;28;20088;-75
2022/07/25 07:26:52;;;;;;;11.57;9.30;;;24.30;99.90;;;;;;4996314;28;20084;-75
2022/07/25 07:29:17;;;;;;;10.50;9.40;;;24.30;99.90;;;;;;5014304;28;20042;-75
2022/07/25 07:31:43;;;;;;;11.07;8.63;;;24.30;99.90;;;;;;5011813;28;20547;-77
2022/07/25 07:34:09;;;;;;;10.90;8.57;;;24.40;99.90;;;;;;4999880;28;20072;-76
2022/07/25 07:36:34;;;;;;;12.73;9.05;;;24.50;99.90;;;;;;5002216;28;20041;-75
2022/07/25 07:39:00;;;;;;;12.93;9.00;;;24.50;99.90;;;;;;4999554;28;20046;-77
2022/07/25 07:41:25;;;;;;;9.82;8.63;;;24.70;99.90;;;;;;5007026;28;20049;-77
2022/07/25 07:43:51;;;;;;;10.30;8.23;;;24.90;99.90;;;;;;4981443;28;20077;-75
2022/07/25 07:46:16;;;;;;;9.32;8.23;;;24.90;99.90;;;;;;4997680;28;20677;-75
2022/07/25 07:48:42;;;;;;;11.88;8.48;;;24.80;99.90;;;;;;4994464;28;20542;-75
2022/07/25 07:51:07;;;;;;;9.95;8.52;;;24.80;99.90;;;;;;4995566;28;20412;-75
2022/07/25 07:56:18;;;;;;;8.90;7.55;;;24.80;99.90;;;;;;4993580;28;20042;-75
2022/07/25 07:58:44;;;;;;;9.25;7.68;;;24.90;99.90;;;;;;4993005;28;20507;-74
2022/07/25 08:01:10;;;;;;;10.23;7.57;;;25.00;99.90;;;;;;5002310;28;20030;-75
2022/07/25 08:03:36;;;;;;;10.68;8.25;;;25.00;99.90;;;;;;5001289;28;20049;-73
2022/07/25 08:06:02;;;;;;;11.68;8.38;;;25.10;99.90;;;;;;5010682;28;20037;-74
2022/07/25 08:08:29;;;;;;;8.20;7.20;;;25.10;99.90;;;;;;5008555;28;20045;-75
2022/07/25 08:10:54;;;;;;;8.07;6.70;;;25.20;99.90;;;;;;4997002;28;20045;-76
2022/07/25 08:13:26;;;;;;;8.02;6.80;;;25.20;99.90;;;;;;4996579;28;20407;-75
2022/07/25 08:15:56;;;;;;;16.30;7.25;;;25.30;99.90;;;;;;4992886;28;20491;-75
2022/07/25 08:18:21;;;;;;;8.80;6.80;;;25.40;99.90;;;;;;4994201;28;20052;-76
2022/07/25 08:20:47;;;;;;;22.48;8.05;;;25.40;99.90;;;;;;4993880;28;20105;-75
2022/07/25 08:23:13;;;;;;;8.70;6.43;;;25.40;99.90;;;;;;4991368;28;20042;-76
2022/07/25 08:25:40;;;;;;;7.80;6.03;;;25.50;99.90;;;;;;4999305;28;20046;-77
2022/07/25 08:28:06;;;;;;;7.43;6.05;;;25.50;99.90;;;;;;4992965;28;20030;-76
2022/07/25 08:30:33;;;;;;;7.85;5.93;;;25.50;99.90;;;;;;5000922;28;20042;-77
2022/07/25 08:33:02;;;;;;;6.82;5.70;;;25.40;99.90;;;;;;5005418;28;20042;-77
2022/07/25 08:35:28;;;;;;;7.43;5.43;;;25.30;99.90;;;;;;5007518;28;20042;-77
2022/07/25 08:37:55;;;;;;;6.93;5.20;;;25.10;99.90;;;;;;5005422;28;20053;-77
2022/07/25 08:40:23;;;;;;;5.00;4.30;;;24.90;99.90;;;;;;5006243;28;20046;-76
2022/07/25 08:42:50;;;;;;;4.53;3.13;;;24.70;99.90;;;;;;5020840;28;20038;-76
2022/07/25 08:45:18;;;;;;;4.60;2.85;;;24.50;99.90;;;;;;5026144;28;20038;-76
2022/07/25 08:47:45;;;;;;;4.07;3.03;;;24.40;99.90;;;;;;5016007;28;20403;-76
2022/07/25 08:50:14;;;;;;;4.22;2.90;;;24.20;99.90;;;;;;4998654;28;20114;-76
2022/07/25 08:52:46;;;;;;;6.85;3.08;;;24.10;99.90;;;;;;5003450;28;20038;-77
2022/07/25 08:55:15;;;;;;;4.13;2.90;;;24.00;99.90;;;;;;5006783;28;20058;-77
2022/07/25 08:57:42;;;;;;;4.35;3.10;;;24.00;99.90;;;;;;4991621;28;20573;-76
2022/07/25 09:00:13;;;;;;;5.03;3.30;;;24.00;99.90;;;;;;4993960;28;20049;-76
2022/07/25 09:02:39;;;;;;;5.03;3.40;;;23.90;99.90;;;;;;5008212;28;20053;-77
2022/07/25 09:05:05;;;;;;;5.10;3.53;;;24.00;99.90;;;;;;5006770;28;20500;-77
2022/07/25 09:07:39;;;;;;;5.45;3.33;;;24.10;99.90;;;;;;5003198;28;20069;-76
2022/07/25 09:10:22;;;;;;;4.68;2.85;;;24.20;99.90;;;;;;5001075;28;20652;-75
2022/07/25 09:13:03;;;;;;;6.20;2.75;;;24.30;99.90;;;;;;5019345;28;20034;-76
2022/07/25 09:15:42;;;;;;;5.68;2.50;;;24.40;99.90;;;;;;5004635;28;20080;-77
2022/07/25 09:18:12;;;;;;;3.42;2.40;;;24.50;99.90;;;;;;5005833;28;20042;-77
2022/07/25 09:20:52;;;;;;;5.55;2.40;;;24.60;99.90;;;;;;5007696;28;20065;-77
2022/07/25 09:23:33;;;;;;;4.55;2.28;;;24.60;99.90;;;;;;5008762;28;20037;-76
2022/07/25 09:26:07;;;;;;;4.53;2.40;;;24.80;99.90;;;;;;5010344;28;20088;-76
2022/07/25 09:28:43;;;;;;;3.38;2.05;;;24.90;99.90;;;;;;4994122;28;20038;-76
2022/07/25 09:31:09;;;;;;;3.95;2.00;;;25.10;99.90;;;;;;4980149;28;20061;-76
2022/07/25 09:33:46;;;;;;;5.30;2.00;;;25.10;99.90;;;;;;4981989;28;20061;-75
2022/07/25 09:36:12;;;;;;;3.95;2.00;;;25.30;99.90;;;;;;5007535;28;20074;-75
2022/07/25 09:38:38;;;;;;;3.95;1.88;;;25.40;99.90;;;;;;5009598;28;20093;-76
2022/07/25 09:41:04;;;;;;;4.63;2.03;;;25.30;99.40;;;;;;4997783;28;20496;-75
2022/07/25 09:43:40;;;;;;;2.38;1.60;;;25.40;99.20;;;;;;5010130;28;20053;-75
2022/07/25 09:46:07;;;;;;;3.85;1.77;;;25.60;99.20;;;;;;4993338;28;20050;-75
2022/07/25 09:48:34;;;;;;;3.65;1.67;;;25.70;98.90;;;;;;5003478;28;20668;-76
2022/07/25 09:51:00;;;;;;;3.38;1.52;;;25.70;98.50;;;;;;5004038;28;20121;-75
2022/07/25 09:53:26;;;;;;;3.25;1.70;;;25.80;98.40;;;;;;4993737;28;20165;-75
2022/07/25 09:55:55;;;;;;;2.05;1.45;;;25.80;98.40;;;;;;5014574;28;20508;-75
2022/07/25 09:58:22;;;;;;;2.92;1.50;;;25.80;98.20;;;;;;5026232;28;20521;-74
2022/07/25 10:00:49;;;;;;;2.35;1.60;;;25.70;97.80;;;;;;4996025;28;20515;-75
2022/07/25 10:03:49;;;;;;;3.13;1.67;;;25.70;97.90;;;;;;4997466;28;20037;-76
2022/07/25 10:06:38;;;;;;;3.25;1.40;;;25.80;98.00;;;;;;4999364;28;20472;-75
2022/07/25 10:09:13;;;;;;;2.00;1.60;;;25.90;97.70;;;;;;5005683;28;20061;-75
2022/07/25 10:11:39;;;;;;;3.08;1.63;;;25.90;97.70;;;;;;4998136;28;20089;-75
2022/07/25 10:14:11;;;;;;;3.33;1.83;;;25.80;97.80;;;;;;4986797;28;20038;-75
2022/07/25 10:16:47;;;;;;;3.90;1.70;;;25.60;97.90;;;;;;5011659;28;20041;-75
2022/07/25 10:19:13;;;;;;;2.63;1.65;;;25.50;98.20;;;;;;4997792;28;20041;-75
2022/07/25 10:21:39;;;;;;;2.60;1.80;;;25.30;98.30;;;;;;5014712;28;20117;-73
2022/07/25 10:24:07;;;;;;;2.85;1.83;;;25.20;98.50;;;;;;4994509;28;20093;-75
2022/07/25 10:26:40;;;;;;;4.10;1.70;;;25.20;98.70;;;;;;4997649;28;20037;-74
2022/07/25 10:29:10;;;;;;;3.53;1.80;;;25.00;98.90;;;;;;4995881;28;20042;-75
2022/07/25 10:31:40;;;;;;;4.25;1.83;;;24.90;99.10;;;;;;5006309;28;20033;-75
2022/07/25 10:34:08;;;;;;;2.88;1.90;;;24.70;99.60;;;;;;4991665;28;20042;-75
2022/07/25 10:36:44;;;;;;;3.17;1.85;;;24.50;99.90;;;;;;5001763;28;20077;-74
2022/07/25 10:39:12;;;;;;;5.75;2.10;;;24.40;99.90;;;;;;4999664;28;20153;-77
2022/07/25 10:41:47;;;;;;;7.18;2.25;;;24.00;99.90;;;;;;4994047;28;21917;-75
2022/07/25 10:44:14;;;;;;;5.82;2.30;;;23.60;99.90;;;;;;4993456;28;20034;-76
2022/07/25 10:46:43;;;;;;;6.47;2.10;;;23.50;99.90;;;;;;4994841;28;20029;-75
2022/07/25 10:49:20;;;;;;;7.35;2.30;;;23.50;99.90;;;;;;4997479;28;20034;-75
2022/07/25 10:51:58;;;;;;;4.28;2.20;;;23.50;99.90;;;;;;5022657;28;20377;-75
2022/07/25 10:54:24;;;;;;;5.03;2.00;;;23.60;99.90;;;;;;5011233;28;20535;-75
2022/07/25 10:56:59;;;;;;;4.90;2.72;;;23.70;99.90;;;;;;4999772;28;20050;-76
2022/07/25 10:59:33;;;;;;;4.30;2.58;;;24.10;99.90;;;;;;5016802;28;20549;-75
2022/07/25 11:01:59;;;;;;;3.95;2.55;;;24.40;99.90;;;;;;5007827;28;20120;-75
2022/07/25 11:04:25;;;;;;;4.40;2.47;;;24.70;99.90;;;;;;4986057;28;20399;-76
2022/07/25 11:06:51;;;;;;;4.63;2.55;;;24.80;99.90;;;;;;4995775;28;20041;-75
2022/07/25 11:09:25;;;;;;;5.03;2.40;;;25.00;99.90;;;;;;4991250;28;20034;-75
2022/07/25 11:11:56;;;;;;;5.07;2.22;;;25.00;99.90;;;;;;4999155;28;20065;-75
2022/07/25 11:14:33;;;;;;;3.65;2.20;;;25.00;99.90;;;;;;4986735;28;20556;-75
2022/07/25 11:17:19;;;;;;;5.72;2.17;;;25.40;99.90;;;;;;5001242;28;20062;-74
2022/07/25 11:19:54;;;;;;;7.95;2.30;;;25.50;99.90;;;;;;5011584;28;20103;-75
2022/07/25 11:22:20;;;;;;;6.25;2.17;;;25.40;99.90;;;;;;5013008;28;20030;-76
2022/07/25 11:24:46;;;;;;;6.53;2.40;;;25.30;99.90;;;;;;4992887;28;20038;-74
2022/07/25 11:27:24;;;;;;;5.43;2.38;;;25.10;99.90;;;;;;4992754;28;20034;-75
2022/07/25 11:29:50;;;;;;;5.47;2.35;;;25.00;99.90;;;;;;5002437;28;20041;-76
2022/07/25 11:32:16;;;;;;;6.57;2.42;;;25.00;99.90;;;;;;5016180;28;20523;-75
2022/07/25 11:34:45;;;;;;;5.15;2.13;;;25.20;99.90;;;;;;5003554;28;20069;-76
2022/07/25 11:37:12;;;;;;;6.70;2.10;;;25.40;99.90;;;;;;4998763;28;20038;-75
2022/07/25 11:39:40;;;;;;;11.70;2.50;;;25.60;99.90;;;;;;5006068;28;20074;-76
2022/07/25 11:42:08;;;;;;;5.38;2.13;;;25.70;99.90;;;;;;5018968;28;20042;-74
2022/07/25 11:44:54;;;;;;;5.75;2.13;;;25.80;99.90;;;;;;5003134;28;20100;-76
2022/07/25 11:47:31;;;;;;;7.35;2.30;;;25.70;99.90;;;;;;5023222;28;20081;-76
2022/07/25 11:50:03;;;;;;;8.75;2.70;;;25.40;99.90;;;;;;5005441;28;20046;-72
2022/07/25 11:52:37;;;;;;;8.60;2.45;;;25.00;99.90;;;;;;5008208;28;20398;-77
2022/07/25 11:55:15;;;;;;;11.40;2.38;;;24.60;99.90;;;;;;5090952;27;20417;-75
2022/07/25 11:57:44;;;;;;;7.85;2.08;;;24.20;99.90;;;;;;5068099;28;20054;-75
2022/07/25 12:00:17;;;;;;;7.50;2.40;;;24.10;99.90;;;;;;5051289;28;20032;-76
2022/07/25 12:02:43;;;;;;;7.07;2.10;;;24.30;99.90;;;;;;5054077;28;20028;-76
2022/07/25 12:05:12;;;;;;;7.03;2.30;;;24.40;99.90;;;;;;5036237;28;20037;-75
2022/07/25 12:07:50;;;;;;;6.03;2.28;;;24.50;99.90;;;;;;5054126;28;20064;-75
2022/07/25 12:10:17;;;;;;;6.95;2.33;;;24.90;99.90;;;;;;5072461;28;20096;-75
2022/07/25 12:12:50;;;;;;;5.13;1.85;;;25.00;99.90;;;;;;5052582;28;20098;-75
2022/07/25 12:15:25;;;;;;;8.98;2.45;;;25.10;99.90;;;;;;5038730;28;20143;-73
2022/07/25 12:17:52;;;;;;;6.00;2.03;;;24.90;99.90;;;;;;5054101;28;20064;-75
2022/07/25 12:20:23;;;;;;;10.00;2.08;;;24.70;99.90;;;;;;5051358;28;20051;-75
2022/07/25 12:22:54;;;;;;;7.70;2.03;;;24.40;99.90;;;;;;5043435;28;20042;-74
2022/07/25 12:25:20;;;;;;;9.75;2.13;;;24.70;99.90;;;;;;5057179;28;20479;-75
2022/07/25 12:27:46;;;;;;;6.40;2.00;;;25.20;99.90;;;;;;5049055;28;20052;-75
2022/07/25 12:30:12;;;;;;;5.32;1.90;;;25.70;99.90;;;;;;5054718;28;20419;-78
2022/07/25 12:32:38;;;;;;;6.40;2.17;;;25.90;99.90;;;;;;5049956;28;20120;-78
2022/07/25 12:35:06;;;;;;;6.05;1.90;;;25.60;99.90;;;;;;5031335;28;20129;-75
2022/07/25 12:37:31;;;;;;;5.57;1.70;;;25.40;99.80;;;;;;5016906;28;20048;-77
2022/07/25 12:39:57;;;;;;;5.38;1.60;;;25.10;99.90;;;;;;5045832;28;20395;-75
2022/07/25 12:42:24;;;;;;;3.92;1.52;;;25.00;99.90;;;;;;5045021;28;20037;-75
2022/07/25 12:44:50;;;;;;;5.60;1.73;;;25.00;99.90;;;;;;5043043;28;20403;-75
2022/07/25 12:47:15;;;;;;;5.60;1.88;;;25.00;99.90;;;;;;5048446;28;20102;-75